createdAt,value
2023-05-05T00:01:33.099Z,78.00
2023-05-05T00:04:00.060Z,77.60
2023-05-05T00:06:28.389Z,77.90
2023-05-05T00:08:56.102Z,77.80
2023-05-05T00:11:22.933Z,77.60
2023-05-05T00:13:49.773Z,77.80
2023-05-05T00:16:16.481Z,77.90
2023-05-05T00:18:44.193Z,78.00
2023-05-05T00:21:10.933Z,78.00
2023-05-05T00:23:37.653Z,77.80
2023-05-05T00:26:04.445Z,78.00
2023-05-05T00:28:31.291Z,78.10
2023-05-05T00:30:58.371Z,78.60
2023-05-05T00:33:25.777Z,78.10
2023-05-05T00:35:52.696Z,78.10
2023-05-05T00:38:19.490Z,78.00
2023-05-05T00:40:46.352Z,78.10
2023-05-05T00:43:13.136Z,78.20
2023-05-05T00:45:42.930Z,78.10
2023-05-05T00:48:10.155Z,78.20
2023-05-05T00:50:38.174Z,78.70
2023-05-05T00:53:06.766Z,78.90
2023-05-05T00:55:34.716Z,78.80
2023-05-05T00:58:05.560Z,79.00
2023-05-05T01:00:33.012Z,79.30
2023-05-05T01:02:59.995Z,79.50
2023-05-05T01:05:54.389Z,79.10
2023-05-05T01:08:55.000Z,78.90
2023-05-05T01:11:32.084Z,79.50
2023-05-05T01:14:05.086Z,79.40
2023-05-05T01:16:34.563Z,79.80
2023-05-05T01:19:06.962Z,79.50
2023-05-05T01:22:00.762Z,79.40
2023-05-05T01:24:59.890Z,79.50
2023-05-05T01:27:45.057Z,79.30
2023-05-05T01:30:23.968Z,79.30
2023-05-05T01:32:56.678Z,80.00
2023-05-05T01:35:33.224Z,78.80
2023-05-05T01:38:09.012Z,79.40
2023-05-05T01:40:47.068Z,79.30
2023-05-05T01:43:17.718Z,79.30
2023-05-05T01:45:46.424Z,79.20
2023-05-05T01:48:17.220Z,79.90
2023-05-05T01:50:52.170Z,79.80
2023-05-05T01:53:21.108Z,80.70
2023-05-05T01:55:50.524Z,80.50
2023-05-05T01:58:18.308Z,80.40
2023-05-05T02:00:45.588Z,81.00
2023-05-05T02:03:14.718Z,80.40
2023-05-05T02:05:43.619Z,80.50
2023-05-05T02:08:11.449Z,81.00
2023-05-05T02:10:42.845Z,80.70
2023-05-05T02:13:12.607Z,80.40
2023-05-05T02:15:40.561Z,80.50
2023-05-05T02:18:07.653Z,80.90
2023-05-05T02:20:37.919Z,80.80
2023-05-05T02:23:06.369Z,82.00
2023-05-05T02:25:39.888Z,82.00
2023-05-05T02:28:14.956Z,81.50
2023-05-05T02:30:43.350Z,81.30
2023-05-05T02:33:13.346Z,82.10
2023-05-05T02:35:41.633Z,82.10
2023-05-05T02:38:19.392Z,81.40
2023-05-05T02:40:52.218Z,81.50
2023-05-05T02:43:22.307Z,81.10
2023-05-05T02:45:49.224Z,80.80
2023-05-05T02:48:16.847Z,81.20
2023-05-05T02:50:43.687Z,80.40
2023-05-05T02:53:26.121Z,80.80
2023-05-05T02:56:07.998Z,80.20
2023-05-05T02:58:44.431Z,80.40
2023-05-05T03:01:27.922Z,81.60
2023-05-05T03:04:08.001Z,81.30
2023-05-05T03:06:46.498Z,81.60
2023-05-05T03:09:30.071Z,81.20
2023-05-05T03:12:02.152Z,81.30
2023-05-05T03:14:35.296Z,81.70
2023-05-05T03:17:03.490Z,80.90
2023-05-05T03:19:31.326Z,81.10
2023-05-05T03:22:02.878Z,81.10
2023-05-05T03:24:29.961Z,82.00
2023-05-05T03:27:03.183Z,81.60
2023-05-05T03:29:34.685Z,82.40
2023-05-05T03:32:03.606Z,81.70
2023-05-05T03:34:30.592Z,81.50
2023-05-05T03:36:59.583Z,81.70
2023-05-05T03:39:26.336Z,82.00
2023-05-05T03:41:54.046Z,82.30
2023-05-05T03:44:22.393Z,82.10
2023-05-05T03:46:49.194Z,81.60
2023-05-05T03:49:17.896Z,82.80
2023-05-05T03:51:47.269Z,82.00
2023-05-05T03:54:14.852Z,81.90
2023-05-05T03:56:41.788Z,82.00
2023-05-05T03:59:10.039Z,82.30
2023-05-05T04:01:37.037Z,82.60
2023-05-05T04:04:05.081Z,82.20
2023-05-05T04:06:32.062Z,81.80
2023-05-05T04:08:58.948Z,81.80
2023-05-05T04:11:26.269Z,82.50
2023-05-05T04:13:54.317Z,82.80
2023-05-05T04:16:21.695Z,83.00
2023-05-05T04:18:48.910Z,83.20
2023-05-05T04:21:15.961Z,81.90
2023-05-05T04:23:43.368Z,81.50
2023-05-05T04:26:10.667Z,81.40
2023-05-05T04:28:37.637Z,81.30
2023-05-05T04:31:05.125Z,81.70
2023-05-05T04:33:35.298Z,81.70
2023-05-05T04:36:02.833Z,81.10
2023-05-05T04:38:29.769Z,81.40
2023-05-05T04:40:56.860Z,80.90
2023-05-05T04:43:23.746Z,80.70
2023-05-05T04:45:54.459Z,80.20
2023-05-05T04:48:23.682Z,80.40
2023-05-05T04:50:51.451Z,80.30
2023-05-05T04:53:18.366Z,80.10
2023-05-05T04:55:45.453Z,79.40
2023-05-05T04:58:12.179Z,79.60
2023-05-05T05:00:38.901Z,79.30
2023-05-05T05:03:05.875Z,79.30
2023-05-05T05:05:33.338Z,78.10
2023-05-05T05:08:00.167Z,79.30
2023-05-05T05:10:27.481Z,78.80
2023-05-05T05:12:54.469Z,77.70
2023-05-05T05:15:21.374Z,77.90
2023-05-05T05:17:48.323Z,77.10
2023-05-05T05:20:15.247Z,76.70
2023-05-05T05:22:42.157Z,76.10
2023-05-05T05:25:13.483Z,76.80
2023-05-05T05:27:41.682Z,76.80
2023-05-05T05:30:10.136Z,75.60
2023-05-05T05:32:37.777Z,75.40
2023-05-05T05:35:05.704Z,75.40
2023-05-05T05:37:35.278Z,75.00
2023-05-05T05:40:05.044Z,75.10
2023-05-05T05:42:33.864Z,75.00
2023-05-05T05:45:01.380Z,76.00
2023-05-05T05:47:28.275Z,76.00
2023-05-05T05:49:56.692Z,76.80
2023-05-05T05:52:23.534Z,76.20
2023-05-05T05:54:50.611Z,76.70
2023-05-05T05:57:17.476Z,76.60
2023-05-05T05:59:44.461Z,74.90
2023-05-05T06:02:11.357Z,73.00
2023-05-05T06:04:38.246Z,72.50
2023-05-05T06:07:05.134Z,72.60
2023-05-05T06:09:31.927Z,71.60
2023-05-05T06:11:58.691Z,72.00
2023-05-05T06:14:25.725Z,71.50
2023-05-05T06:16:52.805Z,71.00
2023-05-05T06:19:21.916Z,71.00
2023-05-05T06:21:49.107Z,70.40
2023-05-05T06:24:15.892Z,70.20
2023-05-05T06:26:42.798Z,69.60
2023-05-05T06:29:11.723Z,69.70
2023-05-05T06:31:39.230Z,69.00
2023-05-05T06:34:07.056Z,68.90
2023-05-05T06:36:34.315Z,69.10
2023-05-05T06:39:01.233Z,68.70
2023-05-05T06:41:27.949Z,68.20
2023-05-05T06:43:54.678Z,68.00
2023-05-05T06:46:21.546Z,68.50
2023-05-05T06:48:48.343Z,67.20
2023-05-05T06:51:15.551Z,66.20
2023-05-05T06:53:42.491Z,64.70
2023-05-05T06:56:09.272Z,65.80
2023-05-05T06:58:36.000Z,66.10
2023-05-05T07:01:04.042Z,65.30
2023-05-05T07:03:31.213Z,65.00
2023-05-05T07:05:58.106Z,63.90
2023-05-05T07:08:25.466Z,62.00
2023-05-05T07:10:52.194Z,61.60
2023-05-05T07:13:18.956Z,61.50
2023-05-05T07:15:46.434Z,61.10
2023-05-05T07:18:14.595Z,60.50
2023-05-05T07:20:41.727Z,58.90
2023-05-05T07:23:08.573Z,57.90
2023-05-05T07:25:36.009Z,54.90
2023-05-05T07:28:03.790Z,55.40
2023-05-05T07:30:30.701Z,51.60
2023-05-05T07:32:57.687Z,52.00
2023-05-05T07:35:24.534Z,50.10
2023-05-05T07:37:51.340Z,48.70
2023-05-05T07:40:18.294Z,46.20
2023-05-05T07:42:45.348Z,45.70
2023-05-05T07:45:12.231Z,45.30
2023-05-05T07:47:40.547Z,44.60
2023-05-05T07:50:08.465Z,43.40
2023-05-05T07:52:46.912Z,45.50
2023-05-05T07:55:18.428Z,43.30
2023-05-05T07:57:45.169Z,41.30
2023-05-05T08:00:13.447Z,40.90
2023-05-05T08:02:41.187Z,41.00
2023-05-05T08:05:09.023Z,40.20
2023-05-05T08:07:38.208Z,39.30
2023-05-05T08:10:05.658Z,38.80
2023-05-05T08:12:32.381Z,38.20
2023-05-05T08:14:59.193Z,37.30
2023-05-05T08:17:27.102Z,37.20
2023-05-05T08:19:53.910Z,36.40
2023-05-05T08:22:21.942Z,36.00
2023-05-05T08:24:48.719Z,36.60
2023-05-05T08:27:15.606Z,37.20
2023-05-05T08:29:42.596Z,37.20
2023-05-05T08:32:09.337Z,37.20
2023-05-05T08:34:36.094Z,38.30
2023-05-05T08:37:02.874Z,35.90
2023-05-05T08:39:29.676Z,36.80
2023-05-05T08:41:56.524Z,36.80
2023-05-05T08:44:23.370Z,36.00
2023-05-05T08:46:50.847Z,36.90
2023-05-05T08:49:18.789Z,35.70
2023-05-05T08:51:46.580Z,35.30
2023-05-05T08:54:20.009Z,37.00
2023-05-05T08:56:49.677Z,36.40
2023-05-05T08:59:17.472Z,35.60
2023-05-05T09:01:44.916Z,36.00
2023-05-05T09:04:11.854Z,35.20
2023-05-05T09:06:38.677Z,36.60
2023-05-05T09:09:06.718Z,37.60
2023-05-05T09:11:35.091Z,35.70
2023-05-05T09:14:01.937Z,35.90
2023-05-05T09:16:28.942Z,35.90
2023-05-05T09:19:05.117Z,36.50
2023-05-05T09:21:32.411Z,34.90
2023-05-05T09:24:12.742Z,35.10
2023-05-05T09:26:42.432Z,33.70
2023-05-05T09:29:09.526Z,34.30
2023-05-05T09:31:37.741Z,34.40
2023-05-05T09:34:23.212Z,35.20
2023-05-05T09:36:49.972Z,35.90
2023-05-05T09:39:20.491Z,37.40
2023-05-05T09:41:47.290Z,37.80
2023-05-05T09:44:17.353Z,38.20
2023-05-05T09:46:55.155Z,37.40
2023-05-05T09:49:26.786Z,39.80
2023-05-05T09:51:54.742Z,36.20
2023-05-05T09:54:29.453Z,36.90
2023-05-05T09:56:57.196Z,37.90
2023-05-05T09:59:24.478Z,36.90
2023-05-05T10:01:52.042Z,36.10
2023-05-05T10:04:31.076Z,37.50
2023-05-05T10:06:58.819Z,37.90
2023-05-05T10:09:27.209Z,38.60
2023-05-05T10:11:56.570Z,39.20
2023-05-05T10:14:25.193Z,39.30
2023-05-05T10:16:53.283Z,38.70
2023-05-05T10:19:21.930Z,39.40
2023-05-05T10:22:01.786Z,40.30
2023-05-05T10:24:39.336Z,38.40
2023-05-05T10:27:26.261Z,41.20
2023-05-05T10:30:06.340Z,40.20
2023-05-05T10:33:00.548Z,40.00
2023-05-05T10:35:36.726Z,42.10
2023-05-05T10:38:08.204Z,41.30
2023-05-05T10:40:35.275Z,40.30
2023-05-05T10:43:02.657Z,43.10
2023-05-05T10:45:30.567Z,42.40
2023-05-05T10:48:00.875Z,42.10
2023-05-05T10:50:32.905Z,40.70
2023-05-05T10:53:19.534Z,40.10
2023-05-05T10:56:04.975Z,40.60
2023-05-05T10:58:51.172Z,38.70
2023-05-05T11:01:33.589Z,39.50
2023-05-05T11:04:19.583Z,41.00
2023-05-05T11:07:22.674Z,41.50
2023-05-05T11:09:56.884Z,40.90
2023-05-05T11:12:23.826Z,41.00
2023-05-05T11:15:28.057Z,39.10
2023-05-05T11:17:57.090Z,40.40
2023-05-05T11:20:36.114Z,39.40
2023-05-05T11:23:02.914Z,36.30
2023-05-05T11:25:42.061Z,37.80
2023-05-05T11:28:21.160Z,37.00
2023-05-05T11:30:58.119Z,36.30
2023-05-05T11:33:38.109Z,36.70
2023-05-05T11:36:12.660Z,38.80
2023-05-05T11:38:39.443Z,36.20
2023-05-05T11:41:14.180Z,38.20
2023-05-05T11:43:43.732Z,37.00
2023-05-05T11:46:15.056Z,35.00
2023-05-05T11:48:46.187Z,35.50
2023-05-05T11:51:13.964Z,35.50
2023-05-05T11:53:50.189Z,36.80
2023-05-05T11:56:19.317Z,38.10
2023-05-05T11:58:47.063Z,38.50
2023-05-05T12:01:14.680Z,38.40
2023-05-05T12:03:42.000Z,39.90
2023-05-05T12:06:09.357Z,40.80
2023-05-05T12:08:40.009Z,42.10
2023-05-05T12:11:10.985Z,44.70
2023-05-05T12:13:37.843Z,44.10
2023-05-05T12:16:12.752Z,44.00
2023-05-05T12:18:40.296Z,45.30
2023-05-05T12:21:20.508Z,45.60
2023-05-05T12:23:47.493Z,47.70
2023-05-05T12:26:31.460Z,47.20
2023-05-05T12:28:59.606Z,46.70
2023-05-05T12:31:52.923Z,47.00
2023-05-05T12:34:21.285Z,47.60
2023-05-05T12:36:48.212Z,46.40
2023-05-05T12:39:15.239Z,45.00
2023-05-05T12:41:42.241Z,44.80
2023-05-05T12:44:09.110Z,46.30
2023-05-05T12:46:48.927Z,44.60
2023-05-05T12:49:17.650Z,45.70
2023-05-05T12:51:55.067Z,45.40
2023-05-05T12:54:24.351Z,46.90
2023-05-05T12:56:51.291Z,48.50
2023-05-05T12:59:24.124Z,47.70
2023-05-05T13:01:52.753Z,47.60
2023-05-05T13:04:21.553Z,47.70
2023-05-05T13:06:49.460Z,46.70
2023-05-05T13:09:26.950Z,47.70
2023-05-05T13:11:54.726Z,47.70
2023-05-05T13:14:21.692Z,50.10
2023-05-05T13:16:48.711Z,49.70
2023-05-05T13:19:15.522Z,49.90
2023-05-05T13:21:42.304Z,51.00
2023-05-05T13:24:21.374Z,50.90
2023-05-05T13:26:53.114Z,51.30
2023-05-05T13:29:19.977Z,50.90
2023-05-05T13:31:47.136Z,51.10
2023-05-05T13:34:14.711Z,49.80
2023-05-05T13:36:41.794Z,51.50
2023-05-05T13:39:08.934Z,51.20
2023-05-05T13:41:35.665Z,47.70
2023-05-05T13:44:05.646Z,46.20
2023-05-05T13:46:32.625Z,48.00
2023-05-05T13:48:59.482Z,49.10
2023-05-05T13:51:26.358Z,47.80
2023-05-05T13:53:53.322Z,47.80
2023-05-05T13:56:20.106Z,48.90
2023-05-05T13:58:46.968Z,48.00
2023-05-05T14:01:13.784Z,49.30
2023-05-05T14:03:40.764Z,48.70
2023-05-05T14:06:09.046Z,50.30
2023-05-05T14:08:35.830Z,49.60
2023-05-05T14:11:03.235Z,51.00
2023-05-05T14:13:30.230Z,50.70
2023-05-05T14:15:58.374Z,50.50
2023-05-05T14:18:25.979Z,50.70
2023-05-05T14:20:52.762Z,50.40
2023-05-05T14:23:19.709Z,50.90
2023-05-05T14:25:46.485Z,51.00
2023-05-05T14:28:13.452Z,52.40
2023-05-05T14:30:40.229Z,53.50
2023-05-05T14:33:07.042Z,53.20
2023-05-05T14:35:33.935Z,54.40
2023-05-05T14:38:00.790Z,54.50
2023-05-05T14:40:29.384Z,55.10
2023-05-05T14:42:56.135Z,55.60
2023-05-05T14:45:23.473Z,56.30
2023-05-05T14:47:50.255Z,57.40
2023-05-05T14:50:16.937Z,58.30
2023-05-05T14:52:44.451Z,59.30
2023-05-05T14:55:11.861Z,59.60
2023-05-05T14:57:38.825Z,60.50
2023-05-05T15:00:09.347Z,61.40
2023-05-05T15:02:36.216Z,62.10
2023-05-05T15:05:03.128Z,62.40
2023-05-05T15:07:29.908Z,62.80
2023-05-05T15:09:56.681Z,63.10
2023-05-05T15:12:23.536Z,64.00
2023-05-05T15:14:50.309Z,64.70
2023-05-05T15:17:16.998Z,65.10
2023-05-05T15:19:43.866Z,65.80
2023-05-05T15:22:10.598Z,66.60
2023-05-05T15:24:37.380Z,67.40
2023-05-05T15:27:04.316Z,70.00
2023-05-05T15:29:31.314Z,72.10
2023-05-05T15:31:58.260Z,72.20
2023-05-05T15:34:25.112Z,73.00
2023-05-05T15:36:51.912Z,72.90
2023-05-05T15:39:18.754Z,73.30
2023-05-05T15:41:45.644Z,74.20
2023-05-05T15:44:12.858Z,74.30
2023-05-05T15:46:39.770Z,73.90
2023-05-05T15:49:06.729Z,73.50
2023-05-05T15:51:33.460Z,73.30
2023-05-05T15:54:00.229Z,73.40
2023-05-05T15:56:27.520Z,73.60
2023-05-05T15:58:54.396Z,73.90
2023-05-05T16:01:21.288Z,75.10
2023-05-05T16:03:48.120Z,75.00
2023-05-05T16:06:14.986Z,75.30
2023-05-05T16:08:42.123Z,75.60
2023-05-05T16:11:08.863Z,76.40
2023-05-05T16:13:35.632Z,77.20
2023-05-05T16:16:02.381Z,77.40
2023-05-05T16:18:29.209Z,77.80
2023-05-05T16:20:55.971Z,78.00
2023-05-05T16:23:22.735Z,77.00
2023-05-05T16:25:49.548Z,76.80
2023-05-05T16:28:16.797Z,77.10
2023-05-05T16:30:43.576Z,77.20
2023-05-05T16:33:10.668Z,77.70
2023-05-05T16:35:37.490Z,77.70
2023-05-05T16:38:04.215Z,77.90
2023-05-05T16:40:30.956Z,76.60
2023-05-05T16:42:57.798Z,76.60
2023-05-05T16:45:25.836Z,76.50
2023-05-05T16:47:55.364Z,76.90
2023-05-05T16:50:23.329Z,76.80
2023-05-05T16:52:50.743Z,76.60
2023-05-05T16:55:17.618Z,76.10
2023-05-05T16:57:44.348Z,75.90
2023-05-05T17:00:12.190Z,76.10
2023-05-05T17:02:38.972Z,75.20
2023-05-05T17:05:06.413Z,75.30
2023-05-05T17:07:33.257Z,74.30
2023-05-05T17:10:00.151Z,74.40
2023-05-05T17:12:27.189Z,74.20
2023-05-05T17:14:54.659Z,74.30
2023-05-05T17:17:21.432Z,74.80
2023-05-05T17:19:48.181Z,74.20
2023-05-05T17:22:14.938Z,74.00
2023-05-05T17:24:41.784Z,74.20
2023-05-05T17:27:08.554Z,75.10
2023-05-05T17:29:41.187Z,74.50
2023-05-05T17:32:09.031Z,75.70
2023-05-05T17:34:36.016Z,75.40
2023-05-05T17:37:02.949Z,75.50
2023-05-05T17:39:29.986Z,75.90
2023-05-05T17:41:56.769Z,76.00
2023-05-05T17:44:23.642Z,76.10
2023-05-05T17:46:50.591Z,76.80
2023-05-05T17:49:17.455Z,76.90
2023-05-05T17:51:44.400Z,77.60
2023-05-05T17:54:11.507Z,78.40
2023-05-05T17:56:38.383Z,78.90
2023-05-05T17:59:05.244Z,79.40
2023-05-05T18:01:32.057Z,80.60
2023-05-05T18:03:58.904Z,82.20
2023-05-05T18:06:25.882Z,84.70
2023-05-05T18:08:52.850Z,85.50
2023-05-05T18:11:21.170Z,85.90
2023-05-05T18:13:47.997Z,86.40
2023-05-05T18:16:14.989Z,86.70
2023-05-05T18:18:41.849Z,86.50
2023-05-05T18:21:12.202Z,86.40
2023-05-05T18:23:40.210Z,86.90
2023-05-05T18:26:07.429Z,88.20
2023-05-05T18:28:34.203Z,90.40
2023-05-05T18:31:01.011Z,93.60
2023-05-05T18:33:27.887Z,95.10
2023-05-05T18:35:54.651Z,94.90
2023-05-05T18:38:21.504Z,94.90
2023-05-05T18:40:48.454Z,94.60
2023-05-05T18:43:15.240Z,94.90
2023-05-05T18:45:42.124Z,95.40
2023-05-05T18:48:09.007Z,96.60
2023-05-05T18:50:37.111Z,96.60
2023-05-05T18:53:04.333Z,96.60
2023-05-05T18:55:31.149Z,96.60
2023-05-05T18:57:58.021Z,96.60
2023-05-05T19:00:24.807Z,96.60
2023-05-05T19:02:51.767Z,96.60
2023-05-05T19:05:18.723Z,96.60
2023-05-05T19:07:45.744Z,96.60
2023-05-05T19:10:12.705Z,96.60
2023-05-05T19:12:39.581Z,96.60
2023-05-05T19:15:07.009Z,96.60
2023-05-05T19:17:34.164Z,96.60
2023-05-05T19:20:00.978Z,96.60
2023-05-05T19:22:27.848Z,96.60
2023-05-05T19:24:54.629Z,96.60
2023-05-05T19:27:21.431Z,96.60
2023-05-05T19:29:52.491Z,96.60
2023-05-05T19:32:20.887Z,96.60
2023-05-05T19:34:48.142Z,96.60
2023-05-05T19:37:14.927Z,96.60
2023-05-05T19:39:44.312Z,96.60
2023-05-05T19:42:11.515Z,96.60
2023-05-05T19:44:38.344Z,96.60
2023-05-05T19:47:05.225Z,96.60
2023-05-05T19:49:32.005Z,96.60
2023-05-05T19:51:59.107Z,96.60
2023-05-05T19:54:26.671Z,96.60
2023-05-05T19:56:55.181Z,96.60
2023-05-05T19:59:22.099Z,96.60
2023-05-05T20:01:49.049Z,96.60
2023-05-05T20:04:15.938Z,96.60
2023-05-05T20:06:42.776Z,96.60
2023-05-05T20:09:09.622Z,96.60
2023-05-05T20:11:36.814Z,96.60
2023-05-05T20:14:03.741Z,96.60
2023-05-05T20:16:31.285Z,96.60
2023-05-05T20:18:58.349Z,96.60
2023-05-05T20:21:25.102Z,96.60
2023-05-05T20:23:54.380Z,96.60
2023-05-05T20:26:21.694Z,96.60
2023-05-05T20:28:48.453Z,96.60
2023-05-05T20:31:15.435Z,96.60
2023-05-05T20:33:42.509Z,96.60
2023-05-05T20:36:09.520Z,96.60
2023-05-05T20:38:36.347Z,96.60
2023-05-05T20:41:03.757Z,96.60
2023-05-05T20:43:30.545Z,96.60
2023-05-05T20:45:57.246Z,96.60
2023-05-05T20:48:24.078Z,96.60
2023-05-05T20:50:51.280Z,96.60
2023-05-05T20:53:19.184Z,96.60
2023-05-05T20:55:46.098Z,96.60
2023-05-05T20:58:12.994Z,96.60
2023-05-05T21:00:39.923Z,96.60
2023-05-05T21:03:06.974Z,96.60
2023-05-05T21:05:33.786Z,96.60
2023-05-05T21:08:01.286Z,96.60
2023-05-05T21:10:28.963Z,96.60
2023-05-05T21:12:55.947Z,96.60
2023-05-05T21:15:23.023Z,96.60
2023-05-05T21:17:49.840Z,96.60
2023-05-05T21:20:18.529Z,96.60
2023-05-05T21:22:45.663Z,96.60
2023-05-05T21:25:17.787Z,96.60
2023-05-05T21:27:45.495Z,96.60
2023-05-05T21:30:12.825Z,96.60
2023-05-05T21:32:40.589Z,96.60
2023-05-05T21:35:08.750Z,96.60
2023-05-05T21:37:37.677Z,96.60
2023-05-05T21:40:05.887Z,96.60
2023-05-05T21:42:32.751Z,96.60
2023-05-05T21:44:59.555Z,96.60
2023-05-05T21:47:26.830Z,96.60
2023-05-05T21:49:53.594Z,96.60
2023-05-05T21:52:20.371Z,96.60
2023-05-05T21:54:47.219Z,96.60
2023-05-05T21:57:13.898Z,96.60
2023-05-05T21:59:41.277Z,96.60
2023-05-05T22:02:08.117Z,96.60
2023-05-05T22:04:34.878Z,96.60
2023-05-05T22:07:01.643Z,96.60
2023-05-05T22:09:28.364Z,96.60
2023-05-05T22:11:55.207Z,96.60
2023-05-05T22:14:22.049Z,96.60
2023-05-05T22:16:48.755Z,96.60
2023-05-05T22:19:15.792Z,96.60
2023-05-05T22:21:42.606Z,96.60
2023-05-05T22:24:09.386Z,96.60
2023-05-05T22:26:36.175Z,96.60
2023-05-05T22:29:02.906Z,96.60
2023-05-05T22:31:30.647Z,96.60
2023-05-05T22:33:57.599Z,96.60
2023-05-05T22:36:24.469Z,96.60
2023-05-05T22:38:51.524Z,96.60
2023-05-05T22:41:18.354Z,96.60
2023-05-05T22:43:45.184Z,96.60
2023-05-05T22:46:12.136Z,96.60
2023-05-05T22:48:38.912Z,96.60
2023-05-05T22:51:06.455Z,96.60
2023-05-05T22:53:33.244Z,96.60
2023-05-05T22:55:59.955Z,96.60
2023-05-05T22:58:27.069Z,96.60
2023-05-05T23:00:53.799Z,96.60
2023-05-05T23:03:20.596Z,96.60
2023-05-05T23:05:47.321Z,96.60
2023-05-05T23:08:14.064Z,96.60
2023-05-05T23:10:40.890Z,96.60
2023-05-05T23:13:07.800Z,96.60
2023-05-05T23:15:35.064Z,96.60
2023-05-05T23:18:01.880Z,96.60
2023-05-05T23:20:28.836Z,96.60
2023-05-05T23:22:55.820Z,96.60
2023-05-05T23:25:22.536Z,96.60
2023-05-05T23:27:49.365Z,96.60
2023-05-05T23:30:16.391Z,96.60
2023-05-05T23:32:44.809Z,96.60
2023-05-05T23:35:12.144Z,96.60
2023-05-05T23:37:39.102Z,96.60
2023-05-05T23:40:06.805Z,96.60
2023-05-05T23:42:33.559Z,96.60
2023-05-05T23:45:00.803Z,96.60
2023-05-05T23:47:27.648Z,96.60
2023-05-05T23:49:54.366Z,96.60
2023-05-05T23:52:21.787Z,96.60
2023-05-05T23:54:48.592Z,96.60
2023-05-05T23:57:15.956Z,96.60
2023-05-05T23:59:42.686Z,96.60
